sensor_id;sensor_type;location;lat;lon;timestamp;P1;durP1;ratioP1;P2;durP2;ratioP2
71562;SDS011;59391;52.504;13.438;2022-09-09T00:07:02;11.25;;;7.80;;
71562;SDS011;59391;52.504;13.438;2022-09-09T00:10:05;12.50;;;8.30;;
71562;SDS011;59391;52.504;13.438;2022-09-09T00:13:09;10.43;;;7.90;;
71562;SDS011;59391;52.504;13.438;2022-09-09T00:16:10;10.80;;;8.10;;
71562;SDS011;59391;52.504;13.438;2022-09-09T00:18:47;14.23;;;8.52;;
71562;SDS011;59391;52.504;13.438;2022-09-09T00:21:37;13.68;;;8.80;;
71562;SDS011;59391;52.504;13.438;2022-09-09T00:24:27;12.00;;;8.55;;
71562;SDS011;59391;52.504;13.438;2022-09-09T00:27:08;10.85;;;8.10;;
71562;SDS011;59391;52.504;13.438;2022-09-09T00:29:55;11.25;;;8.18;;
71562;SDS011;59391;52.504;13.438;2022-09-09T00:32:49;10.32;;;8.25;;
71562;SDS011;59391;52.504;13.438;2022-09-09T00:35:38;11.18;;;8.40;;
71562;SDS011;59391;52.504;13.438;2022-09-09T00:38:17;10.82;;;8.15;;
71562;SDS011;59391;52.504;13.438;2022-09-09T00:43:39;11.13;;;8.07;;
71562;SDS011;59391;52.504;13.438;2022-09-09T00:46:26;10.70;;;7.75;;
71562;SDS011;59391;52.504;13.438;2022-09-09T00:49:39;11.02;;;8.23;;
71562;SDS011;59391;52.504;13.438;2022-09-09T00:52:36;11.35;;;8.68;;
71562;SDS011;59391;52.504;13.438;2022-09-09T00:58:14;11.02;;;7.90;;
71562;SDS011;59391;52.504;13.438;2022-09-09T01:00:42;10.85;;;8.18;;
71562;SDS011;59391;52.504;13.438;2022-09-09T01:11:36;13.10;;;8.80;;
71562;SDS011;59391;52.504;13.438;2022-09-09T01:17:24;11.50;;;8.80;;
71562;SDS011;59391;52.504;13.438;2022-09-09T01:22:59;13.00;;;8.40;;
71562;SDS011;59391;52.504;13.438;2022-09-09T01:26:10;12.23;;;7.53;;
71562;SDS011;59391;52.504;13.438;2022-09-09T01:28:45;11.70;;;8.15;;
71562;SDS011;59391;52.504;13.438;2022-09-09T01:31:20;12.40;;;8.38;;
71562;SDS011;59391;52.504;13.438;2022-09-09T01:34:13;13.90;;;8.88;;
71562;SDS011;59391;52.504;13.438;2022-09-09T01:36:51;12.65;;;8.60;;
71562;SDS011;59391;52.504;13.438;2022-09-09T01:39:26;12.32;;;7.93;;
71562;SDS011;59391;52.504;13.438;2022-09-09T01:41:53;12.20;;;8.70;;
71562;SDS011;59391;52.504;13.438;2022-09-09T01:44:20;12.70;;;8.02;;
71562;SDS011;59391;52.504;13.438;2022-09-09T01:46:47;9.98;;;7.20;;
71562;SDS011;59391;52.504;13.438;2022-09-09T01:49:12;9.88;;;7.30;;
71562;SDS011;59391;52.504;13.438;2022-09-09T01:51:38;11.00;;;7.23;;
71562;SDS011;59391;52.504;13.438;2022-09-09T01:54:06;9.88;;;7.18;;
71562;SDS011;59391;52.504;13.438;2022-09-09T01:56:53;10.40;;;7.15;;
71562;SDS011;59391;52.504;13.438;2022-09-09T02:10:46;10.05;;;7.25;;
71562;SDS011;59391;52.504;13.438;2022-09-09T02:13:21;9.55;;;6.85;;
71562;SDS011;59391;52.504;13.438;2022-09-09T02:16:07;10.32;;;7.18;;
71562;SDS011;59391;52.504;13.438;2022-09-09T02:21:24;11.43;;;7.28;;
71562;SDS011;59391;52.504;13.438;2022-09-09T02:23:54;10.60;;;6.88;;
71562;SDS011;59391;52.504;13.438;2022-09-09T02:26:23;11.05;;;7.50;;
71562;SDS011;59391;52.504;13.438;2022-09-09T02:28:51;11.20;;;7.28;;
71562;SDS011;59391;52.504;13.438;2022-09-09T02:31:22;10.70;;;7.47;;
71562;SDS011;59391;52.504;13.438;2022-09-09T02:33:58;12.93;;;7.35;;
71562;SDS011;59391;52.504;13.438;2022-09-09T02:36:27;10.05;;;7.15;;
71562;SDS011;59391;52.504;13.438;2022-09-09T02:38:58;11.27;;;7.00;;
71562;SDS011;59391;52.504;13.438;2022-09-09T02:41:35;10.63;;;7.07;;
71562;SDS011;59391;52.504;13.438;2022-09-09T02:44:14;10.13;;;6.97;;
71562;SDS011;59391;52.504;13.438;2022-09-09T02:55:43;13.07;;;8.02;;
71562;SDS011;59391;52.504;13.438;2022-09-09T02:58:19;10.40;;;7.73;;
71562;SDS011;59391;52.504;13.438;2022-09-09T03:00:46;10.35;;;7.53;;
71562;SDS011;59391;52.504;13.438;2022-09-09T03:03:14;9.40;;;6.78;;
71562;SDS011;59391;52.504;13.438;2022-09-09T03:05:43;10.77;;;7.32;;
71562;SDS011;59391;52.504;13.438;2022-09-09T03:08:09;10.32;;;7.13;;
71562;SDS011;59391;52.504;13.438;2022-09-09T03:10:35;11.80;;;7.37;;
71562;SDS011;59391;52.504;13.438;2022-09-09T03:13:02;10.32;;;7.35;;
71562;SDS011;59391;52.504;13.438;2022-09-09T03:15:30;12.32;;;7.75;;
71562;SDS011;59391;52.504;13.438;2022-09-09T03:17:57;10.63;;;7.20;;
71562;SDS011;59391;52.504;13.438;2022-09-09T03:20:24;10.07;;;7.10;;
71562;SDS011;59391;52.504;13.438;2022-09-09T03:22:54;10.70;;;6.97;;
71562;SDS011;59391;52.504;13.438;2022-09-09T03:25:21;10.38;;;7.10;;
71562;SDS011;59391;52.504;13.438;2022-09-09T03:27:51;10.18;;;7.20;;
71562;SDS011;59391;52.504;13.438;2022-09-09T03:30:29;10.25;;;7.00;;
71562;SDS011;59391;52.504;13.438;2022-09-09T03:32:54;10.27;;;7.65;;
71562;SDS011;59391;52.504;13.438;2022-09-09T03:35:20;10.80;;;7.07;;
71562;SDS011;59391;52.504;13.438;2022-09-09T03:37:46;10.23;;;7.07;;
71562;SDS011;59391;52.504;13.438;2022-09-09T03:40:12;9.40;;;7.10;;
71562;SDS011;59391;52.504;13.438;2022-09-09T03:42:38;9.98;;;7.35;;
71562;SDS011;59391;52.504;13.438;2022-09-09T03:45:05;9.27;;;7.07;;
71562;SDS011;59391;52.504;13.438;2022-09-09T03:47:34;10.95;;;7.43;;
71562;SDS011;59391;52.504;13.438;2022-09-09T03:50:00;11.00;;;7.38;;
71562;SDS011;59391;52.504;13.438;2022-09-09T03:52:26;9.95;;;7.32;;
71562;SDS011;59391;52.504;13.438;2022-09-09T03:54:52;13.02;;;8.35;;
71562;SDS011;59391;52.504;13.438;2022-09-09T03:57:19;9.52;;;7.20;;
71562;SDS011;59391;52.504;13.438;2022-09-09T03:59:46;12.80;;;7.60;;
71562;SDS011;59391;52.504;13.438;2022-09-09T04:02:12;10.57;;;6.70;;
71562;SDS011;59391;52.504;13.438;2022-09-09T04:04:37;9.53;;;7.03;;
71562;SDS011;59391;52.504;13.438;2022-09-09T04:07:03;10.93;;;7.18;;
71562;SDS011;59391;52.504;13.438;2022-09-09T04:09:31;10.20;;;6.43;;
71562;SDS011;59391;52.504;13.438;2022-09-09T04:11:58;9.60;;;6.80;;
71562;SDS011;59391;52.504;13.438;2022-09-09T04:14:24;10.15;;;7.05;;
71562;SDS011;59391;52.504;13.438;2022-09-09T04:16:52;11.30;;;7.30;;
71562;SDS011;59391;52.504;13.438;2022-09-09T04:19:18;8.45;;;6.38;;
71562;SDS011;59391;52.504;13.438;2022-09-09T04:21:44;9.53;;;6.70;;
71562;SDS011;59391;52.504;13.438;2022-09-09T04:24:09;10.73;;;6.63;;
71562;SDS011;59391;52.504;13.438;2022-09-09T04:26:35;11.93;;;7.00;;
71562;SDS011;59391;52.504;13.438;2022-09-09T04:29:02;9.98;;;6.57;;
71562;SDS011;59391;52.504;13.438;2022-09-09T04:31:29;10.82;;;6.65;;
71562;SDS011;59391;52.504;13.438;2022-09-09T04:33:55;11.87;;;6.90;;
71562;SDS011;59391;52.504;13.438;2022-09-09T04:36:21;10.80;;;6.90;;
71562;SDS011;59391;52.504;13.438;2022-09-09T04:38:47;8.88;;;6.55;;
71562;SDS011;59391;52.504;13.438;2022-09-09T04:41:14;12.15;;;7.22;;
71562;SDS011;59391;52.504;13.438;2022-09-09T04:43:41;11.18;;;6.78;;
71562;SDS011;59391;52.504;13.438;2022-09-09T04:46:07;11.70;;;7.10;;
71562;SDS011;59391;52.504;13.438;2022-09-09T04:48:33;11.23;;;6.88;;
71562;SDS011;59391;52.504;13.438;2022-09-09T04:51:00;10.10;;;7.10;;
71562;SDS011;59391;52.504;13.438;2022-09-09T04:53:29;11.63;;;7.20;;
71562;SDS011;59391;52.504;13.438;2022-09-09T04:56:03;10.32;;;7.43;;
71562;SDS011;59391;52.504;13.438;2022-09-09T04:58:37;11.02;;;6.75;;
71562;SDS011;59391;52.504;13.438;2022-09-09T05:01:14;11.18;;;7.45;;
71562;SDS011;59391;52.504;13.438;2022-09-09T05:03:54;9.75;;;7.15;;
71562;SDS011;59391;52.504;13.438;2022-09-09T05:06:22;11.60;;;7.15;;
71562;SDS011;59391;52.504;13.438;2022-09-09T05:08:48;10.10;;;6.85;;
71562;SDS011;59391;52.504;13.438;2022-09-09T05:11:15;10.18;;;6.78;;
71562;SDS011;59391;52.504;13.438;2022-09-09T05:13:48;12.30;;;7.68;;
71562;SDS011;59391;52.504;13.438;2022-09-09T05:16:15;11.20;;;7.20;;
71562;SDS011;59391;52.504;13.438;2022-09-09T05:18:41;11.45;;;7.28;;
71562;SDS011;59391;52.504;13.438;2022-09-09T05:21:08;12.18;;;7.07;;
71562;SDS011;59391;52.504;13.438;2022-09-09T05:23:37;9.63;;;6.82;;
71562;SDS011;59391;52.504;13.438;2022-09-09T05:26:03;10.27;;;6.75;;
71562;SDS011;59391;52.504;13.438;2022-09-09T05:28:33;10.87;;;6.07;;
71562;SDS011;59391;52.504;13.438;2022-09-09T05:31:01;9.90;;;6.63;;
71562;SDS011;59391;52.504;13.438;2022-09-09T05:33:32;11.35;;;6.90;;
71562;SDS011;59391;52.504;13.438;2022-09-09T05:36:03;9.88;;;6.85;;
71562;SDS011;59391;52.504;13.438;2022-09-09T05:38:38;12.35;;;7.22;;
71562;SDS011;59391;52.504;13.438;2022-09-09T05:41:05;11.37;;;6.83;;
71562;SDS011;59391;52.504;13.438;2022-09-09T05:43:32;10.65;;;6.30;;
71562;SDS011;59391;52.504;13.438;2022-09-09T05:48:34;8.13;;;6.07;;
71562;SDS011;59391;52.504;13.438;2022-09-09T05:51:02;13.93;;;6.32;;
71562;SDS011;59391;52.504;13.438;2022-09-09T05:53:31;10.70;;;6.00;;
71562;SDS011;59391;52.504;13.438;2022-09-09T05:56:06;10.80;;;6.35;;
71562;SDS011;59391;52.504;13.438;2022-09-09T05:58:35;9.38;;;6.55;;
71562;SDS011;59391;52.504;13.438;2022-09-09T06:01:08;8.70;;;6.15;;
71562;SDS011;59391;52.504;13.438;2022-09-09T06:03:43;9.27;;;6.35;;
71562;SDS011;59391;52.504;13.438;2022-09-09T06:06:11;9.43;;;5.93;;
71562;SDS011;59391;52.504;13.438;2022-09-09T06:08:43;8.55;;;5.22;;
71562;SDS011;59391;52.504;13.438;2022-09-09T06:11:11;10.10;;;5.97;;
71562;SDS011;59391;52.504;13.438;2022-09-09T06:13:48;10.10;;;5.50;;
71562;SDS011;59391;52.504;13.438;2022-09-09T06:16:19;9.90;;;5.47;;
71562;SDS011;59391;52.504;13.438;2022-09-09T06:18:50;7.40;;;4.97;;
71562;SDS011;59391;52.504;13.438;2022-09-09T06:21:18;10.13;;;5.93;;
71562;SDS011;59391;52.504;13.438;2022-09-09T06:23:47;9.48;;;5.85;;
71562;SDS011;59391;52.504;13.438;2022-09-09T06:26:15;12.60;;;5.93;;
71562;SDS011;59391;52.504;13.438;2022-09-09T06:28:45;8.88;;;5.35;;
71562;SDS011;59391;52.504;13.438;2022-09-09T06:31:12;7.40;;;4.77;;
71562;SDS011;59391;52.504;13.438;2022-09-09T06:33:46;7.22;;;4.85;;
71562;SDS011;59391;52.504;13.438;2022-09-09T06:36:18;7.38;;;5.05;;
71562;SDS011;59391;52.504;13.438;2022-09-09T06:38:46;9.18;;;4.03;;
71562;SDS011;59391;52.504;13.438;2022-09-09T06:41:12;6.97;;;4.20;;
71562;SDS011;59391;52.504;13.438;2022-09-09T06:43:41;7.65;;;4.70;;
71562;SDS011;59391;52.504;13.438;2022-09-09T06:46:17;10.32;;;4.55;;
71562;SDS011;59391;52.504;13.438;2022-09-09T06:48:48;7.67;;;4.03;;
71562;SDS011;59391;52.504;13.438;2022-09-09T06:51:18;9.63;;;4.80;;
71562;SDS011;59391;52.504;13.438;2022-09-09T06:53:47;9.10;;;4.30;;
71562;SDS011;59391;52.504;13.438;2022-09-09T06:58:41;7.70;;;4.20;;
71562;SDS011;59391;52.504;13.438;2022-09-09T07:01:11;7.57;;;4.78;;
71562;SDS011;59391;52.504;13.438;2022-09-09T07:03:58;8.82;;;4.30;;
71562;SDS011;59391;52.504;13.438;2022-09-09T07:06:26;9.23;;;5.60;;
71562;SDS011;59391;52.504;13.438;2022-09-09T07:08:58;8.63;;;4.50;;
71562;SDS011;59391;52.504;13.438;2022-09-09T07:11:27;6.45;;;4.20;;
71562;SDS011;59391;52.504;13.438;2022-09-09T07:13:56;8.40;;;5.40;;
71562;SDS011;59391;52.504;13.438;2022-09-09T07:16:24;6.85;;;4.18;;
71562;SDS011;59391;52.504;13.438;2022-09-09T07:18:52;6.07;;;3.95;;
71562;SDS011;59391;52.504;13.438;2022-09-09T07:21:22;6.65;;;4.15;;
71562;SDS011;59391;52.504;13.438;2022-09-09T07:23:51;7.82;;;3.60;;
71562;SDS011;59391;52.504;13.438;2022-09-09T07:26:18;6.75;;;4.25;;
71562;SDS011;59391;52.504;13.438;2022-09-09T07:28:48;5.95;;;3.67;;
71562;SDS011;59391;52.504;13.438;2022-09-09T07:31:22;6.95;;;4.20;;
71562;SDS011;59391;52.504;13.438;2022-09-09T07:33:56;6.72;;;3.92;;
71562;SDS011;59391;52.504;13.438;2022-09-09T07:36:40;10.20;;;3.80;;
71562;SDS011;59391;52.504;13.438;2022-09-09T07:39:12;8.15;;;4.18;;
71562;SDS011;59391;52.504;13.438;2022-09-09T07:41:40;6.57;;;4.30;;
71562;SDS011;59391;52.504;13.438;2022-09-09T07:44:13;8.63;;;4.03;;
71562;SDS011;59391;52.504;13.438;2022-09-09T07:46:46;6.88;;;3.47;;
71562;SDS011;59391;52.504;13.438;2022-09-09T07:49:12;8.80;;;4.20;;
71562;SDS011;59391;52.504;13.438;2022-09-09T07:51:40;6.50;;;3.47;;
71562;SDS011;59391;52.504;13.438;2022-09-09T07:54:11;6.35;;;3.45;;
71562;SDS011;59391;52.504;13.438;2022-09-09T07:56:40;6.60;;;3.60;;
71562;SDS011;59391;52.504;13.438;2022-09-09T07:59:07;8.55;;;3.92;;
71562;SDS011;59391;52.504;13.438;2022-09-09T08:01:35;8.05;;;3.78;;
71562;SDS011;59391;52.504;13.438;2022-09-09T08:04:07;6.07;;;3.10;;
71562;SDS011;59391;52.504;13.438;2022-09-09T08:06:41;5.87;;;3.50;;
71562;SDS011;59391;52.504;13.438;2022-09-09T08:09:11;7.13;;;3.25;;
71562;SDS011;59391;52.504;13.438;2022-09-09T08:11:38;6.22;;;3.13;;
71562;SDS011;59391;52.504;13.438;2022-09-09T08:14:06;7.00;;;3.33;;
71562;SDS011;59391;52.504;13.438;2022-09-09T08:16:34;5.60;;;3.30;;
71562;SDS011;59391;52.504;13.438;2022-09-09T08:19:03;7.90;;;3.40;;
71562;SDS011;59391;52.504;13.438;2022-09-09T08:21:32;6.97;;;3.50;;
71562;SDS011;59391;52.504;13.438;2022-09-09T08:24:02;9.52;;;3.35;;
71562;SDS011;59391;52.504;13.438;2022-09-09T08:26:37;6.10;;;3.25;;
71562;SDS011;59391;52.504;13.438;2022-09-09T08:29:06;8.60;;;3.50;;
71562;SDS011;59391;52.504;13.438;2022-09-09T08:31:36;8.20;;;2.80;;
71562;SDS011;59391;52.504;13.438;2022-09-09T08:34:14;6.45;;;3.30;;
71562;SDS011;59391;52.504;13.438;2022-09-09T08:36:46;5.70;;;3.25;;
71562;SDS011;59391;52.504;13.438;2022-09-09T08:39:14;6.40;;;3.28;;
71562;SDS011;59391;52.504;13.438;2022-09-09T08:44:45;8.25;;;3.20;;
71562;SDS011;59391;52.504;13.438;2022-09-09T08:55:48;8.05;;;3.10;;
71562;SDS011;59391;52.504;13.438;2022-09-09T09:07:11;10.73;;;3.50;;
71562;SDS011;59391;52.504;13.438;2022-09-09T09:12:27;6.70;;;3.60;;
71562;SDS011;59391;52.504;13.438;2022-09-09T09:15:05;7.07;;;3.20;;
71562;SDS011;59391;52.504;13.438;2022-09-09T09:17:43;6.53;;;3.00;;
71562;SDS011;59391;52.504;13.438;2022-09-09T09:20:16;7.70;;;3.00;;
71562;SDS011;59391;52.504;13.438;2022-09-09T09:22:53;5.72;;;2.80;;
71562;SDS011;59391;52.504;13.438;2022-09-09T09:25:32;7.05;;;3.45;;
71562;SDS011;59391;52.504;13.438;2022-09-09T09:28:13;7.78;;;3.25;;
71562;SDS011;59391;52.504;13.438;2022-09-09T09:30:50;6.70;;;2.92;;
71562;SDS011;59391;52.504;13.438;2022-09-09T09:33:50;6.20;;;2.90;;
71562;SDS011;59391;52.504;13.438;2022-09-09T09:36:19;5.47;;;2.60;;
71562;SDS011;59391;52.504;13.438;2022-09-09T09:38:54;7.57;;;2.80;;
71562;SDS011;59391;52.504;13.438;2022-09-09T09:41:32;6.03;;;2.65;;
71562;SDS011;59391;52.504;13.438;2022-09-09T09:44:00;6.38;;;2.90;;
71562;SDS011;59391;52.504;13.438;2022-09-09T09:46:28;6.20;;;2.53;;
71562;SDS011;59391;52.504;13.438;2022-09-09T09:49:04;5.93;;;2.42;;
71562;SDS011;59391;52.504;13.438;2022-09-09T09:51:34;5.75;;;2.60;;
71562;SDS011;59391;52.504;13.438;2022-09-09T09:54:15;5.25;;;2.33;;
71562;SDS011;59391;52.504;13.438;2022-09-09T09:56:47;5.40;;;2.40;;
71562;SDS011;59391;52.504;13.438;2022-09-09T09:59:20;6.43;;;2.57;;
71562;SDS011;59391;52.504;13.438;2022-09-09T10:04:59;9.77;;;2.80;;
71562;SDS011;59391;52.504;13.438;2022-09-09T10:07:38;4.95;;;2.13;;
71562;SDS011;59391;52.504;13.438;2022-09-09T10:10:09;6.47;;;2.73;;
71562;SDS011;59391;52.504;13.438;2022-09-09T10:12:48;5.80;;;2.80;;
71562;SDS011;59391;52.504;13.438;2022-09-09T10:21:03;5.30;;;1.93;;
71562;SDS011;59391;52.504;13.438;2022-09-09T10:27:19;3.70;;;1.77;;
71562;SDS011;59391;52.504;13.438;2022-09-09T10:30:48;4.28;;;1.90;;
71562;SDS011;59391;52.504;13.438;2022-09-09T10:33:59;5.00;;;2.00;;
71562;SDS011;59391;52.504;13.438;2022-09-09T10:36:49;6.45;;;2.10;;
71562;SDS011;59391;52.504;13.438;2022-09-09T10:39:31;5.10;;;2.05;;
71562;SDS011;59391;52.504;13.438;2022-09-09T10:42:20;6.38;;;2.40;;
71562;SDS011;59391;52.504;13.438;2022-09-09T10:47:58;6.47;;;2.50;;
71562;SDS011;59391;52.504;13.438;2022-09-09T10:56:18;5.03;;;2.40;;
71562;SDS011;59391;52.504;13.438;2022-09-09T10:58:56;6.25;;;2.47;;
71562;SDS011;59391;52.504;13.438;2022-09-09T11:01:31;4.87;;;2.20;;
71562;SDS011;59391;52.504;13.438;2022-09-09T11:04:16;7.63;;;2.67;;
71562;SDS011;59391;52.504;13.438;2022-09-09T11:07:05;5.10;;;2.00;;
71562;SDS011;59391;52.504;13.438;2022-09-09T11:09:38;4.65;;;2.10;;
71562;SDS011;59391;52.504;13.438;2022-09-09T11:12:18;6.20;;;2.10;;
71562;SDS011;59391;52.504;13.438;2022-09-09T11:14:45;7.60;;;2.30;;
71562;SDS011;59391;52.504;13.438;2022-09-09T11:17:20;5.35;;;2.13;;
71562;SDS011;59391;52.504;13.438;2022-09-09T11:19:52;5.07;;;1.95;;
71562;SDS011;59391;52.504;13.438;2022-09-09T11:22:32;4.18;;;1.98;;
71562;SDS011;59391;52.504;13.438;2022-09-09T11:25:19;6.28;;;2.22;;
71562;SDS011;59391;52.504;13.438;2022-09-09T11:34:27;6.60;;;2.78;;
71562;SDS011;59391;52.504;13.438;2022-09-09T11:37:14;6.13;;;2.13;;
71562;SDS011;59391;52.504;13.438;2022-09-09T11:40:19;6.07;;;1.95;;
71562;SDS011;59391;52.504;13.438;2022-09-09T11:43:03;6.17;;;2.07;;
71562;SDS011;59391;52.504;13.438;2022-09-09T11:45:52;4.20;;;1.83;;
71562;SDS011;59391;52.504;13.438;2022-09-09T11:48:28;5.38;;;2.00;;
71562;SDS011;59391;52.504;13.438;2022-09-09T11:51:04;4.53;;;2.08;;
71562;SDS011;59391;52.504;13.438;2022-09-09T11:53:34;4.43;;;1.90;;
71562;SDS011;59391;52.504;13.438;2022-09-09T11:56:22;3.83;;;1.93;;
71562;SDS011;59391;52.504;13.438;2022-09-09T11:58:58;4.88;;;2.15;;
71562;SDS011;59391;52.504;13.438;2022-09-09T12:01:30;4.65;;;1.90;;
71562;SDS011;59391;52.504;13.438;2022-09-09T12:04:18;4.45;;;1.80;;
71562;SDS011;59391;52.504;13.438;2022-09-09T12:06:54;5.35;;;1.98;;
71562;SDS011;59391;52.504;13.438;2022-09-09T12:09:52;5.63;;;2.00;;
71562;SDS011;59391;52.504;13.438;2022-09-09T12:12:38;4.10;;;1.80;;
71562;SDS011;59391;52.504;13.438;2022-09-09T12:17:36;3.70;;;1.98;;
71562;SDS011;59391;52.504;13.438;2022-09-09T12:20:13;4.65;;;2.20;;
71562;SDS011;59391;52.504;13.438;2022-09-09T12:22:58;4.87;;;2.03;;
71562;SDS011;59391;52.504;13.438;2022-09-09T12:35:02;4.93;;;1.65;;
71562;SDS011;59391;52.504;13.438;2022-09-09T12:40:34;5.45;;;1.30;;
71562;SDS011;59391;52.504;13.438;2022-09-09T12:43:00;6.10;;;1.55;;
71562;SDS011;59391;52.504;13.438;2022-09-09T12:45:41;5.15;;;1.88;;
71562;SDS011;59391;52.504;13.438;2022-09-09T12:48:07;4.90;;;1.80;;
71562;SDS011;59391;52.504;13.438;2022-09-09T12:50:47;4.88;;;1.77;;
71562;SDS011;59391;52.504;13.438;2022-09-09T12:53:22;7.82;;;1.80;;
71562;SDS011;59391;52.504;13.438;2022-09-09T12:56:07;4.75;;;1.50;;
71562;SDS011;59391;52.504;13.438;2022-09-09T12:58:57;6.97;;;3.75;;
71562;SDS011;59391;52.504;13.438;2022-09-09T13:03:53;4.95;;;1.98;;
71562;SDS011;59391;52.504;13.438;2022-09-09T13:06:24;4.13;;;1.40;;
71562;SDS011;59391;52.504;13.438;2022-09-09T13:08:52;3.95;;;1.40;;
71562;SDS011;59391;52.504;13.438;2022-09-09T13:11:21;5.30;;;1.83;;
71562;SDS011;59391;52.504;13.438;2022-09-09T13:13:54;5.00;;;1.70;;
71562;SDS011;59391;52.504;13.438;2022-09-09T13:18:55;4.88;;;1.67;;
71562;SDS011;59391;52.504;13.438;2022-09-09T13:21:30;4.20;;;1.80;;
71562;SDS011;59391;52.504;13.438;2022-09-09T13:24:01;4.27;;;1.60;;
71562;SDS011;59391;52.504;13.438;2022-09-09T13:26:55;5.30;;;1.73;;
71562;SDS011;59391;52.504;13.438;2022-09-09T13:29:29;4.50;;;1.75;;
71562;SDS011;59391;52.504;13.438;2022-09-09T13:32:04;5.65;;;1.80;;
71562;SDS011;59391;52.504;13.438;2022-09-09T13:34:37;5.00;;;1.70;;
71562;SDS011;59391;52.504;13.438;2022-09-09T13:37:04;4.77;;;1.60;;
71562;SDS011;59391;52.504;13.438;2022-09-09T13:39:50;3.78;;;1.42;;
71562;SDS011;59391;52.504;13.438;2022-09-09T13:42:28;4.75;;;1.70;;
71562;SDS011;59391;52.504;13.438;2022-09-09T13:45:00;5.10;;;1.77;;
71562;SDS011;59391;52.504;13.438;2022-09-09T13:47:31;4.50;;;1.50;;
71562;SDS011;59391;52.504;13.438;2022-09-09T13:52:46;6.47;;;1.77;;
71562;SDS011;59391;52.504;13.438;2022-09-09T13:55:16;4.53;;;1.73;;
71562;SDS011;59391;52.504;13.438;2022-09-09T13:57:56;3.33;;;1.57;;
71562;SDS011;59391;52.504;13.438;2022-09-09T14:00:31;5.45;;;1.98;;
71562;SDS011;59391;52.504;13.438;2022-09-09T14:02:59;5.43;;;1.80;;
71562;SDS011;59391;52.504;13.438;2022-09-09T14:05:27;5.32;;;1.70;;
71562;SDS011;59391;52.504;13.438;2022-09-09T14:07:54;6.20;;;1.50;;
71562;SDS011;59391;52.504;13.438;2022-09-09T14:10:20;4.97;;;1.80;;
71562;SDS011;59391;52.504;13.438;2022-09-09T14:12:47;5.10;;;1.63;;
71562;SDS011;59391;52.504;13.438;2022-09-09T14:15:12;5.80;;;1.70;;
71562;SDS011;59391;52.504;13.438;2022-09-09T14:17:39;4.90;;;1.65;;
71562;SDS011;59391;52.504;13.438;2022-09-09T14:20:05;4.93;;;1.60;;
71562;SDS011;59391;52.504;13.438;2022-09-09T14:22:34;4.68;;;1.70;;
71562;SDS011;59391;52.504;13.438;2022-09-09T14:25:01;4.53;;;1.70;;
71562;SDS011;59391;52.504;13.438;2022-09-09T14:27:28;5.30;;;1.85;;
71562;SDS011;59391;52.504;13.438;2022-09-09T14:29:55;6.13;;;2.10;;
71562;SDS011;59391;52.504;13.438;2022-09-09T14:32:21;4.83;;;1.60;;
71562;SDS011;59391;52.504;13.438;2022-09-09T14:34:46;4.22;;;1.90;;
71562;SDS011;59391;52.504;13.438;2022-09-09T14:37:15;9.57;;;1.70;;
71562;SDS011;59391;52.504;13.438;2022-09-09T14:39:41;8.10;;;1.90;;
71562;SDS011;59391;52.504;13.438;2022-09-09T14:42:09;4.13;;;1.80;;
71562;SDS011;59391;52.504;13.438;2022-09-09T14:44:36;6.93;;;1.80;;
71562;SDS011;59391;52.504;13.438;2022-09-09T14:47:05;4.32;;;1.45;;
71562;SDS011;59391;52.504;13.438;2022-09-09T14:49:33;6.35;;;1.80;;
71562;SDS011;59391;52.504;13.438;2022-09-09T14:51:59;4.90;;;1.47;;
71562;SDS011;59391;52.504;13.438;2022-09-09T14:54:25;7.03;;;1.90;;
71562;SDS011;59391;52.504;13.438;2022-09-09T14:56:51;4.88;;;1.70;;
71562;SDS011;59391;52.504;13.438;2022-09-09T14:59:17;5.00;;;1.80;;
71562;SDS011;59391;52.504;13.438;2022-09-09T15:01:42;6.17;;;1.67;;
71562;SDS011;59391;52.504;13.438;2022-09-09T15:04:10;5.27;;;1.83;;
71562;SDS011;59391;52.504;13.438;2022-09-09T15:06:39;6.32;;;1.95;;
71562;SDS011;59391;52.504;13.438;2022-09-09T15:09:07;4.82;;;2.10;;
71562;SDS011;59391;52.504;13.438;2022-09-09T15:11:34;5.20;;;2.10;;
71562;SDS011;59391;52.504;13.438;2022-09-09T15:14:02;6.90;;;2.38;;
71562;SDS011;59391;52.504;13.438;2022-09-09T15:16:30;4.35;;;1.90;;
71562;SDS011;59391;52.504;13.438;2022-09-09T15:18:57;7.22;;;2.55;;
71562;SDS011;59391;52.504;13.438;2022-09-09T15:21:26;5.68;;;2.25;;
71562;SDS011;59391;52.504;13.438;2022-09-09T15:23:55;5.40;;;2.03;;
71562;SDS011;59391;52.504;13.438;2022-09-09T15:26:22;4.97;;;2.10;;
71562;SDS011;59391;52.504;13.438;2022-09-09T15:28:48;9.07;;;5.40;;
71562;SDS011;59391;52.504;13.438;2022-09-09T15:31:22;4.55;;;2.10;;
71562;SDS011;59391;52.504;13.438;2022-09-09T15:33:54;5.40;;;1.98;;
71562;SDS011;59391;52.504;13.438;2022-09-09T15:36:26;5.20;;;1.60;;
71562;SDS011;59391;52.504;13.438;2022-09-09T15:39:05;6.20;;;1.80;;
71562;SDS011;59391;52.504;13.438;2022-09-09T15:41:34;3.53;;;1.55;;
71562;SDS011;59391;52.504;13.438;2022-09-09T15:44:00;3.65;;;1.80;;
71562;SDS011;59391;52.504;13.438;2022-09-09T15:49:02;4.60;;;2.13;;
71562;SDS011;59391;52.504;13.438;2022-09-09T15:51:31;5.47;;;2.95;;
71562;SDS011;59391;52.504;13.438;2022-09-09T15:53:58;4.90;;;2.40;;
71562;SDS011;59391;52.504;13.438;2022-09-09T15:56:24;6.07;;;3.00;;
71562;SDS011;59391;52.504;13.438;2022-09-09T15:58:53;4.97;;;2.20;;
71562;SDS011;59391;52.504;13.438;2022-09-09T16:01:21;5.03;;;2.40;;
71562;SDS011;59391;52.504;13.438;2022-09-09T16:03:48;5.82;;;2.33;;
71562;SDS011;59391;52.504;13.438;2022-09-09T16:06:16;4.43;;;1.80;;
71562;SDS011;59391;52.504;13.438;2022-09-09T16:08:46;5.10;;;1.70;;
71562;SDS011;59391;52.504;13.438;2022-09-09T16:13:49;4.77;;;1.83;;
71562;SDS011;59391;52.504;13.438;2022-09-09T16:16:17;5.32;;;2.30;;
71562;SDS011;59391;52.504;13.438;2022-09-09T16:18:47;4.90;;;2.20;;
71562;SDS011;59391;52.504;13.438;2022-09-09T16:21:18;6.43;;;2.28;;
71562;SDS011;59391;52.504;13.438;2022-09-09T16:23:56;8.55;;;5.28;;
71562;SDS011;59391;52.504;13.438;2022-09-09T16:26:24;6.03;;;3.33;;
71562;SDS011;59391;52.504;13.438;2022-09-09T16:28:52;6.13;;;3.08;;
71562;SDS011;59391;52.504;13.438;2022-09-09T16:31:19;4.80;;;2.05;;
71562;SDS011;59391;52.504;13.438;2022-09-09T16:33:47;5.22;;;2.03;;
71562;SDS011;59391;52.504;13.438;2022-09-09T16:36:15;7.68;;;2.40;;
71562;SDS011;59391;52.504;13.438;2022-09-09T16:38:47;6.03;;;2.20;;
71562;SDS011;59391;52.504;13.438;2022-09-09T16:41:13;6.65;;;2.83;;
71562;SDS011;59391;52.504;13.438;2022-09-09T16:43:39;5.97;;;2.60;;
71562;SDS011;59391;52.504;13.438;2022-09-09T16:48:43;7.32;;;2.65;;
71562;SDS011;59391;52.504;13.438;2022-09-09T16:51:15;6.72;;;2.50;;
71562;SDS011;59391;52.504;13.438;2022-09-09T16:53:44;4.85;;;2.53;;
71562;SDS011;59391;52.504;13.438;2022-09-09T16:56:11;6.18;;;2.80;;
71562;SDS011;59391;52.504;13.438;2022-09-09T16:58:41;6.80;;;2.93;;
71562;SDS011;59391;52.504;13.438;2022-09-09T17:01:08;5.65;;;2.50;;
71562;SDS011;59391;52.504;13.438;2022-09-09T17:03:38;6.15;;;2.38;;
71562;SDS011;59391;52.504;13.438;2022-09-09T17:06:08;5.45;;;3.10;;
71562;SDS011;59391;52.504;13.438;2022-09-09T17:08:39;5.82;;;2.70;;
71562;SDS011;59391;52.504;13.438;2022-09-09T17:11:16;7.43;;;2.90;;
71562;SDS011;59391;52.504;13.438;2022-09-09T17:13:43;7.00;;;2.90;;
71562;SDS011;59391;52.504;13.438;2022-09-09T17:16:11;5.28;;;2.67;;
71562;SDS011;59391;52.504;13.438;2022-09-09T17:18:39;5.95;;;2.85;;